createdAt,value
2018-02-01T00:00:15.754Z,31.6
2018-02-01T00:02:08.088Z,31.7
2018-02-01T00:04:05.919Z,31.7
2018-02-01T00:06:05.697Z,31.6
2018-02-01T00:08:05.502Z,31.6
2018-02-01T00:10:05.282Z,31.7
2018-02-01T00:12:06.004Z,31.6
2018-02-01T00:14:05.246Z,31.6
2018-02-01T00:16:05.768Z,31.7
2018-02-01T00:18:06.463Z,31.6
2018-02-01T00:20:07.812Z,31.6
2018-02-01T00:22:05.578Z,31.6
2018-02-01T00:24:10.421Z,31.6
2018-02-01T00:26:05.270Z,31.6
2018-02-01T00:28:05.690Z,31.5
2018-02-01T00:30:05.467Z,31.5
2018-02-01T00:32:05.332Z,31.5
2018-02-01T00:34:05.634Z,31.5
2018-02-01T00:36:05.483Z,31.5
2018-02-01T00:38:10.879Z,31.5
2018-02-01T00:40:05.639Z,31.5
2018-02-01T00:42:08.033Z,31.5
2018-02-01T00:44:10.942Z,31.5
2018-02-01T00:46:05.666Z,31.5
2018-02-01T00:48:05.513Z,31.4
2018-02-01T00:50:08.250Z,31.4
2018-02-01T00:52:05.105Z,31.4
2018-02-01T00:54:06.172Z,31.4
2018-02-01T00:56:16.093Z,31.4
2018-02-01T00:58:05.896Z,31.4
2018-02-01T01:00:10.703Z,31.2
2018-02-01T01:02:05.034Z,31.4
2018-02-01T01:04:06.135Z,31.4
2018-02-01T01:06:06.151Z,31.4
2018-02-01T01:08:05.871Z,31.4
2018-02-01T01:10:08.134Z,31.4
2018-02-01T01:12:06.056Z,31.4
2018-02-01T01:14:12.890Z,31.4
2018-02-01T01:16:10.796Z,31.4
2018-02-01T01:18:05.302Z,31.4
2018-02-01T01:20:10.072Z,31.4
2018-02-01T01:22:05.885Z,31.4
2018-02-01T01:24:13.255Z,31.4
2018-02-01T01:26:06.040Z,31.2
2018-02-01T01:28:07.787Z,31.4
2018-02-01T01:30:05.552Z,31.4
2018-02-01T01:32:05.875Z,31.4
2018-02-01T01:34:05.283Z,31.4
2018-02-01T01:36:08.576Z,31.4
2018-02-01T01:38:05.871Z,31.1
2018-02-01T01:40:05.705Z,31.4
2018-02-01T01:42:05.751Z,31.3
2018-02-01T01:44:05.531Z,31.3
2018-02-01T01:46:05.275Z,31.3
2018-02-01T01:48:08.129Z,31.1
2018-02-01T01:50:05.418Z,31.1
2018-02-01T01:52:05.174Z,31.1
2018-02-01T01:54:05.417Z,31.3
2018-02-01T01:56:05.166Z,31.4
2018-02-01T01:58:05.946Z,31.1
2018-02-01T02:00:05.733Z,31.1
2018-02-01T02:02:05.721Z,31.3
2018-02-01T02:04:05.480Z,31.3
2018-02-01T02:06:08.057Z,31.1
2018-02-01T02:08:05.925Z,31
2018-02-01T02:10:05.683Z,31
2018-02-01T02:12:05.979Z,31
2018-02-01T02:14:05.727Z,31
2018-02-01T02:16:20.591Z,31.2
2018-02-01T02:18:05.562Z,31
2018-02-01T02:20:05.348Z,31.2
2018-02-01T02:22:05.101Z,31.2
2018-02-01T02:24:05.974Z,31.1
2018-02-01T02:26:05.714Z,31.1
2018-02-01T02:28:05.169Z,31.1
2018-02-01T02:30:08.004Z,31.1
2018-02-01T02:32:05.819Z,31.1
2018-02-01T02:34:05.638Z,31.2
2018-02-01T02:36:08.388Z,31.1
2018-02-01T02:38:15.279Z,30.9
2018-02-01T02:40:07.637Z,31
2018-02-01T02:42:05.378Z,30.9
2018-02-01T02:44:05.158Z,31.1
2018-02-01T02:46:05.981Z,31.1
2018-02-01T02:48:05.789Z,30.9
2018-02-01T02:50:05.615Z,30.9
2018-02-01T02:52:05.459Z,30.9
2018-02-01T02:54:10.698Z,30.9
2018-02-01T02:56:05.524Z,30.9
2018-02-01T02:58:05.303Z,30.9
2018-02-01T03:00:05.114Z,30.9
2018-02-01T03:02:05.567Z,30.9
2018-02-01T03:04:05.899Z,30.9
2018-02-01T03:06:05.770Z,30.9
2018-02-01T03:08:08.100Z,30.8
2018-02-01T03:10:05.408Z,30.9
2018-02-01T03:12:05.746Z,31.1
2018-02-01T03:14:06.086Z,30.8
2018-02-01T03:16:05.922Z,30.8
2018-02-01T03:18:05.910Z,30.8
2018-02-01T03:20:05.888Z,30.8
2018-02-01T03:22:05.809Z,30.8
2018-02-01T03:24:05.431Z,30.8
2018-02-01T03:26:05.217Z,30.8
2018-02-01T03:28:06.048Z,30.8
2018-02-01T03:30:08.425Z,30.8
2018-02-01T03:32:05.167Z,30.8
2018-02-01T03:34:05.947Z,30.8
2018-02-01T03:36:12.799Z,30.8
2018-02-01T03:38:05.580Z,30.8
2018-02-01T03:40:11.330Z,30.8
2018-02-01T03:42:05.753Z,30.8
2018-02-01T03:44:05.844Z,30.8
2018-02-01T03:46:05.579Z,30.7
2018-02-01T03:48:05.508Z,30.7
2018-02-01T03:50:05.314Z,30.8
2018-02-01T03:52:05.086Z,30.8
2018-02-01T03:54:06.205Z,30.8
2018-02-01T03:56:11.011Z,30.7
2018-02-01T03:58:08.316Z,30.7
2018-02-01T04:00:05.206Z,30.7
2018-02-01T04:02:05.535Z,30.8
2018-02-01T04:04:05.325Z,30.8
2018-02-01T04:06:05.195Z,30.7
2018-02-01T04:08:05.076Z,30.7
2018-02-01T04:10:05.808Z,30.7
2018-02-01T04:12:05.561Z,30.7
2018-02-01T04:14:05.381Z,30.7
2018-02-01T04:16:05.768Z,30.7
2018-02-01T04:18:11.097Z,30.7
2018-02-01T04:20:05.875Z,30.7
2018-02-01T04:22:05.147Z,30.7
2018-02-01T04:24:07.683Z,30.7
2018-02-01T04:26:05.469Z,30.7
2018-02-01T04:28:05.287Z,30.7
2018-02-01T04:30:07.646Z,30.7
2018-02-01T04:32:05.907Z,30.7
2018-02-01T04:34:05.648Z,30.7
2018-02-01T04:36:05.426Z,30.6
2018-02-01T04:38:05.277Z,30.7
2018-02-01T04:40:08.601Z,30.7
2018-02-01T04:42:08.179Z,30.7
2018-02-01T04:44:06.043Z,30.7
2018-02-01T04:46:05.831Z,30.6
2018-02-01T04:48:05.976Z,30.7
2018-02-01T04:50:08.336Z,30.6
2018-02-01T04:52:12.868Z,30.7
2018-02-01T04:54:05.948Z,30.7
2018-02-01T04:56:10.901Z,30.9
2018-02-01T04:58:05.689Z,30.6
2018-02-01T05:00:06.055Z,30.6
2018-02-01T05:02:05.371Z,30.6
2018-02-01T05:04:05.725Z,30.6
2018-02-01T05:06:06.315Z,30.6
2018-02-01T05:08:05.079Z,30.6
2018-02-01T05:10:15.907Z,30.6
2018-02-01T05:12:05.699Z,30.6
2018-02-01T05:14:05.449Z,30.6
2018-02-01T05:16:05.214Z,30.6
2018-02-01T05:18:05.180Z,30.6
2018-02-01T05:20:08.557Z,30.6
2018-02-01T05:22:10.391Z,30.6
2018-02-01T05:24:05.183Z,30.6
2018-02-01T05:26:05.956Z,30.6
2018-02-01T05:28:05.752Z,30.6
2018-02-01T05:30:11.540Z,30.6
2018-02-01T05:32:05.783Z,31.2
2018-02-01T05:34:08.114Z,30.6
2018-02-01T05:36:13.612Z,30.4
2018-02-01T05:38:05.366Z,30.4
2018-02-01T05:40:05.634Z,30.6
2018-02-01T05:42:05.709Z,30.6
2018-02-01T05:44:05.414Z,30.6
2018-02-01T05:46:05.717Z,30.6
2018-02-01T05:48:05.490Z,30.6
2018-02-01T05:50:05.765Z,30.6
2018-02-01T05:52:08.222Z,30.4
2018-02-01T05:54:05.987Z,30.4
2018-02-01T05:56:10.889Z,30.6
2018-02-01T05:58:05.640Z,30.3
2018-02-01T06:00:13.013Z,30.6
2018-02-01T06:02:10.861Z,30.3
2018-02-01T06:04:05.606Z,30.3
2018-02-01T06:06:05.352Z,30.3
2018-02-01T06:08:05.115Z,30.3
2018-02-01T06:10:08.539Z,30.3
2018-02-01T06:12:07.804Z,30.3
2018-02-01T06:14:05.630Z,30.3
2018-02-01T06:16:12.987Z,30.4
2018-02-01T06:18:13.561Z,30.4
2018-02-01T06:20:05.328Z,30.4
2018-02-01T06:22:07.631Z,30.4
2018-02-01T06:24:05.372Z,30.4
2018-02-01T06:26:07.691Z,30.4
2018-02-01T06:28:07.163Z,30.4
2018-02-01T06:30:05.444Z,30.4
2018-02-01T06:32:05.216Z,30.4
2018-02-01T06:34:06.001Z,30.5
2018-02-01T06:36:05.784Z,30.5
2018-02-01T06:38:08.079Z,30.5
2018-02-01T06:40:06.894Z,30.5
2018-02-01T06:42:06.513Z,30.4
2018-02-01T06:44:06.194Z,30.4
2018-02-01T06:46:05.860Z,30.5
2018-02-01T06:48:07.905Z,30.5
2018-02-01T06:50:05.686Z,30.5
2018-02-01T06:52:08.688Z,30.5
2018-02-01T06:54:12.961Z,30.4
2018-02-01T06:56:05.746Z,30.4
2018-02-01T06:58:05.546Z,30.4
2018-02-01T07:00:05.755Z,30.4
2018-02-01T07:02:09.210Z,30.5
2018-02-01T07:04:06.168Z,30.4
2018-02-01T07:06:06.121Z,30.4
2018-02-01T07:08:17.812Z,30.5
2018-02-01T07:10:10.882Z,30.5
2018-02-01T07:12:08.005Z,30.4
2018-02-01T07:14:06.701Z,30.4
2018-02-01T07:16:12.969Z,30.5
2018-02-01T07:18:13.723Z,30.4
2018-02-01T07:20:05.911Z,30.5
2018-02-01T07:22:05.445Z,30.5
2018-02-01T07:24:08.136Z,30.5
2018-02-01T07:26:05.392Z,30.5
2018-02-01T07:28:05.661Z,30.5
2018-02-01T07:30:07.982Z,30.5
2018-02-01T07:32:05.729Z,30.5
2018-02-01T07:34:05.508Z,30.5
2018-02-01T07:36:05.373Z,30.5
2018-02-01T07:38:05.249Z,30.5
2018-02-01T07:40:05.529Z,30.3
2018-02-01T07:42:05.322Z,30.5
2018-02-01T07:44:05.109Z,30.5
2018-02-01T07:46:05.472Z,30.5
2018-02-01T07:48:05.305Z,30.3
2018-02-01T07:50:05.155Z,30.3
2018-02-01T07:52:05.915Z,30.3
2018-02-01T07:54:05.697Z,30.3
2018-02-01T07:56:05.409Z,30.3
2018-02-01T07:58:05.143Z,30.3
2018-02-01T08:00:05.910Z,30.4
2018-02-01T08:02:05.690Z,30.4
2018-02-01T08:04:08.012Z,30.4
2018-02-01T08:06:06.007Z,30.4
2018-02-01T08:08:05.751Z,30.4
2018-02-01T08:10:08.052Z,30.3
2018-02-01T08:12:05.336Z,30.3
2018-02-01T08:14:07.637Z,30.3
2018-02-01T08:16:10.478Z,30
2018-02-01T08:18:15.563Z,30.2
2018-02-01T08:20:05.354Z,30.2
2018-02-01T08:22:10.242Z,30.1
2018-02-01T08:24:05.240Z,30.1
2018-02-01T08:26:05.136Z,30.1
2018-02-01T08:28:13.983Z,30
2018-02-01T08:30:05.399Z,30
2018-02-01T08:32:05.170Z,30.2
2018-02-01T08:34:05.453Z,30
2018-02-01T08:36:05.493Z,30
2018-02-01T08:38:05.741Z,30.2
2018-02-01T08:40:05.450Z,30
2018-02-01T08:42:05.826Z,30
2018-02-01T08:44:05.539Z,30
2018-02-01T08:46:05.396Z,30.3
2018-02-01T08:48:05.456Z,30
2018-02-01T08:50:05.180Z,30
2018-02-01T08:52:06.173Z,30.2
2018-02-01T08:54:08.768Z,30.3
2018-02-01T08:56:05.527Z,30.1
2018-02-01T08:58:05.057Z,30.1
2018-02-01T09:00:05.341Z,30.3
2018-02-01T09:02:05.093Z,30.1
2018-02-01T09:04:05.811Z,30.1
2018-02-01T09:06:08.287Z,30.1
2018-02-01T09:08:05.088Z,30.1
2018-02-01T09:10:05.863Z,30.1
2018-02-01T09:12:05.621Z,30.1
2018-02-01T09:14:05.685Z,30.1
2018-02-01T09:16:07.969Z,30.1
2018-02-01T09:18:05.943Z,30.1
2018-02-01T09:20:05.223Z,30
2018-02-01T09:22:07.656Z,30
2018-02-01T09:24:05.922Z,30
2018-02-01T09:26:05.757Z,30.1
2018-02-01T09:28:05.510Z,30.1
2018-02-01T09:30:05.267Z,30.1
2018-02-01T09:32:05.956Z,30.1
2018-02-01T09:34:10.753Z,30.1
2018-02-01T09:36:08.438Z,30.3
2018-02-01T09:38:05.866Z,30.1
2018-02-01T09:40:05.682Z,30.1
2018-02-01T09:42:05.450Z,30.3
2018-02-01T09:44:05.175Z,30.4
2018-02-01T09:46:05.961Z,30.4
2018-02-01T09:48:05.702Z,30.8
2018-02-01T09:50:05.445Z,30.5
2018-02-01T09:52:05.737Z,30.5
2018-02-01T09:54:08.535Z,30.5
2018-02-01T09:56:05.308Z,30.7
2018-02-01T09:58:07.661Z,30.7
2018-02-01T10:00:05.863Z,30.7
2018-02-01T10:02:05.228Z,30.5
2018-02-01T10:04:13.094Z,30.5
2018-02-01T10:06:05.446Z,30.5
2018-02-01T10:08:05.239Z,30.5
2018-02-01T10:10:05.543Z,30.5
2018-02-01T10:12:05.328Z,30.7
2018-02-01T10:14:07.680Z,30.7
2018-02-01T10:16:07.982Z,30.5
2018-02-01T10:18:05.641Z,30.5
2018-02-01T10:20:05.438Z,30.5
2018-02-01T10:22:05.183Z,30.5
2018-02-01T10:24:05.922Z,30.5
2018-02-01T10:26:05.774Z,30.5
2018-02-01T10:28:05.584Z,30.5
2018-02-01T10:30:07.926Z,30.5
2018-02-01T10:32:05.466Z,30.5
2018-02-01T10:34:13.022Z,30.5
2018-02-01T10:36:05.744Z,30.5
2018-02-01T10:38:06.021Z,30.5
2018-02-01T10:40:05.827Z,30.5
2018-02-01T10:42:05.892Z,30.5
2018-02-01T10:44:08.253Z,30.5
2018-02-01T10:46:05.553Z,30.5
2018-02-01T10:48:05.263Z,30.5
2018-02-01T10:50:05.958Z,30.5
2018-02-01T10:52:10.743Z,30.5
2018-02-01T10:54:07.802Z,30.5
2018-02-01T10:56:05.588Z,30.5
2018-02-01T10:58:05.366Z,30.5
2018-02-01T11:00:07.730Z,30.5
2018-02-01T11:02:08.559Z,30.5
2018-02-01T11:04:07.917Z,30.5
2018-02-01T11:06:08.224Z,30.5
2018-02-01T11:08:08.541Z,30.5
2018-02-01T11:10:07.908Z,30.6
2018-02-01T11:12:06.136Z,30.6
2018-02-01T11:14:05.975Z,30.6
2018-02-01T11:16:05.291Z,30.6
2018-02-01T11:18:05.508Z,30.6
2018-02-01T11:20:05.288Z,30.6
2018-02-01T11:22:05.029Z,30.6
2018-02-01T11:24:05.845Z,30.4
2018-02-01T11:26:05.611Z,30.5
2018-02-01T11:28:05.921Z,31
2018-02-01T11:30:05.710Z,30.7
2018-02-01T11:32:05.463Z,30.7
2018-02-01T11:34:05.790Z,30.3
2018-02-01T11:36:05.805Z,30.3
2018-02-01T11:38:05.627Z,30.3
2018-02-01T11:40:05.559Z,30.3
2018-02-01T11:42:05.305Z,30.3
2018-02-01T11:44:07.565Z,30.3
2018-02-01T11:46:08.128Z,30.3
2018-02-01T11:48:06.145Z,30.3
2018-02-01T11:50:05.903Z,30.3
2018-02-01T11:52:05.679Z,30.3
2018-02-01T11:54:06.022Z,30.3
2018-02-01T11:56:08.398Z,30.3
2018-02-01T11:58:07.871Z,30.2
2018-02-01T12:00:05.562Z,30.2
2018-02-01T12:02:05.492Z,30
2018-02-01T12:04:08.388Z,30.3
2018-02-01T12:06:06.217Z,30
2018-02-01T12:08:08.495Z,30.1
2018-02-01T12:10:13.391Z,30
2018-02-01T12:12:05.987Z,30
2018-02-01T12:14:10.811Z,30
2018-02-01T12:16:05.620Z,30
2018-02-01T12:18:05.567Z,30
2018-02-01T12:20:05.337Z,30
2018-02-01T12:22:05.096Z,30
2018-02-01T12:24:05.823Z,30
2018-02-01T12:26:07.578Z,30
2018-02-01T12:28:05.853Z,30
2018-02-01T12:30:13.471Z,30
2018-02-01T12:32:05.509Z,30
2018-02-01T12:34:05.279Z,30
2018-02-01T12:36:05.558Z,30.1
2018-02-01T12:38:07.803Z,30
2018-02-01T12:40:05.099Z,30
2018-02-01T12:42:05.958Z,30
2018-02-01T12:44:05.749Z,30
2018-02-01T12:46:05.522Z,30
2018-02-01T12:48:05.582Z,30
2018-02-01T12:50:05.331Z,30
2018-02-01T12:52:07.658Z,30.1
2018-02-01T12:54:05.471Z,30.1
2018-02-01T12:56:05.253Z,30
2018-02-01T12:58:06.008Z,30.1
2018-02-01T13:00:08.286Z,30.1
2018-02-01T13:02:05.142Z,30.1
2018-02-01T13:04:05.488Z,30
2018-02-01T13:06:05.960Z,30.1
2018-02-01T13:08:05.974Z,30.1
2018-02-01T13:10:05.762Z,30.1
2018-02-01T13:12:10.886Z,30.1
2018-02-01T13:14:05.630Z,30.1
2018-02-01T13:16:05.361Z,30
2018-02-01T13:18:07.861Z,30.1
2018-02-01T13:20:05.879Z,30.1
2018-02-01T13:22:10.737Z,30.2
2018-02-01T13:24:08.349Z,30.2
2018-02-01T13:26:05.166Z,30
2018-02-01T13:28:06.017Z,30
2018-02-01T13:30:06.085Z,30.2
2018-02-01T13:32:05.881Z,30.1
2018-02-01T13:34:13.524Z,30.1
2018-02-01T13:36:08.342Z,30.1
2018-02-01T13:38:05.098Z,30.1
2018-02-01T13:40:10.873Z,30.1
2018-02-01T13:42:05.689Z,30.1
2018-02-01T13:44:05.451Z,30.1
2018-02-01T13:46:05.422Z,30.1
2018-02-01T13:48:10.509Z,30
2018-02-01T13:50:05.237Z,30
2018-02-01T13:52:05.979Z,30
2018-02-01T13:54:05.315Z,30
2018-02-01T13:56:05.067Z,30
2018-02-01T13:58:05.869Z,30
2018-02-01T14:00:05.596Z,30
2018-02-01T14:02:05.377Z,30
2018-02-01T14:04:05.159Z,30
2018-02-01T14:06:08.743Z,30
2018-02-01T14:08:08.042Z,30
2018-02-01T14:10:05.789Z,30
2018-02-01T14:12:05.576Z,30.1
2018-02-01T14:14:07.832Z,30
2018-02-01T14:16:08.094Z,30
2018-02-01T14:18:05.040Z,30
2018-02-01T14:20:05.776Z,30
2018-02-01T14:22:05.522Z,30
2018-02-01T14:24:05.805Z,30
2018-02-01T14:26:08.057Z,29.9
2018-02-01T14:28:05.799Z,29.9
2018-02-01T14:30:07.693Z,30
2018-02-01T14:32:05.420Z,29.9
2018-02-01T14:34:05.758Z,30
2018-02-01T14:36:05.542Z,30
2018-02-01T14:38:05.793Z,30
2018-02-01T14:40:05.663Z,29.9
2018-02-01T14:42:05.702Z,29.9
2018-02-01T14:44:05.992Z,29.9
2018-02-01T14:46:05.280Z,30
2018-02-01T14:48:11.109Z,30
2018-02-01T14:50:08.449Z,30
2018-02-01T14:52:05.368Z,30
2018-02-01T14:54:05.208Z,30
2018-02-01T14:56:06.261Z,29.9
2018-02-01T14:58:07.797Z,30
2018-02-01T15:00:05.208Z,30
2018-02-01T15:02:05.008Z,30
2018-02-01T15:04:05.551Z,30
2018-02-01T15:06:05.351Z,29.8
2018-02-01T15:08:05.243Z,30
2018-02-01T15:10:06.120Z,30
2018-02-01T15:12:16.162Z,30
2018-02-01T15:14:05.522Z,29.8
2018-02-01T15:16:07.877Z,29.8
2018-02-01T15:18:05.988Z,29.9
2018-02-01T15:20:05.813Z,29.9
2018-02-01T15:22:08.184Z,29.9
2018-02-01T15:24:08.467Z,29.8
2018-02-01T15:26:05.544Z,29.8
2018-02-01T15:28:08.440Z,29.9
2018-02-01T15:30:05.334Z,29.7
2018-02-01T15:32:05.139Z,29.7
2018-02-01T15:34:05.897Z,29.9
2018-02-01T15:36:08.430Z,29.8
2018-02-01T15:38:05.234Z,29.9
2018-02-01T15:40:11.088Z,29.8
2018-02-01T15:42:05.418Z,30
2018-02-01T15:44:05.905Z,29.9
2018-02-01T15:46:08.271Z,29.9
2018-02-01T15:48:06.055Z,29.9
2018-02-01T15:50:05.387Z,29.9
2018-02-01T15:52:05.303Z,29.9
2018-02-01T15:54:05.111Z,29.9
2018-02-01T15:56:05.448Z,29.8
2018-02-01T15:58:11.034Z,29.9
2018-02-01T16:00:07.836Z,29.8
2018-02-01T16:02:05.235Z,29.9
2018-02-01T16:04:05.998Z,29.9
2018-02-01T16:06:08.304Z,29.9
2018-02-01T16:08:05.123Z,29.9
2018-02-01T16:10:05.969Z,29.9
2018-02-01T16:12:05.766Z,29.9
2018-02-01T16:14:05.582Z,30
2018-02-01T16:16:07.890Z,29.9
2018-02-01T16:18:08.471Z,29.9
2018-02-01T16:20:05.233Z,29.9
2018-02-01T16:22:06.113Z,30
2018-02-01T16:24:06.496Z,29.9
2018-02-01T16:26:13.139Z,30
2018-02-01T16:28:08.471Z,29.9
2018-02-01T16:30:07.737Z,30
2018-02-01T16:32:08.034Z,29.8
2018-02-01T16:34:05.798Z,29.8
2018-02-01T16:36:05.766Z,29.8
2018-02-01T16:38:05.608Z,29.8
2018-02-01T16:40:05.427Z,29.9
2018-02-01T16:42:05.459Z,29.9
2018-02-01T16:44:07.699Z,29.9
2018-02-01T16:46:09.083Z,29.9
2018-02-01T16:48:05.863Z,29.9
2018-02-01T16:50:05.612Z,29.9
2018-02-01T16:52:05.417Z,29.9
2018-02-01T16:54:10.269Z,29.9
2018-02-01T16:56:06.035Z,29.9
2018-02-01T16:58:05.782Z,29.9
2018-02-01T17:00:05.585Z,29.9
2018-02-01T17:02:08.279Z,29.9
2018-02-01T17:04:05.196Z,29.9
2018-02-01T17:06:11.438Z,29.9
2018-02-01T17:08:05.223Z,29.9
2018-02-01T17:10:05.049Z,29.9
2018-02-01T17:12:06.148Z,29.9
2018-02-01T17:14:08.431Z,29.9
2018-02-01T17:16:05.746Z,29.9
2018-02-01T17:18:10.302Z,29.8
2018-02-01T17:20:05.625Z,29.9
2018-02-01T17:22:10.521Z,29.9
2018-02-01T17:24:05.359Z,29.9
2018-02-01T17:26:05.696Z,29.9
2018-02-01T17:28:05.443Z,29.9
2018-02-01T17:30:05.168Z,29.8
2018-02-01T17:32:05.961Z,29.9
2018-02-01T17:34:05.728Z,30
2018-02-01T17:36:05.841Z,29.9
2018-02-01T17:38:05.605Z,29.8
2018-02-01T17:40:05.364Z,29.8
2018-02-01T17:42:07.852Z,29.8
2018-02-01T17:44:05.658Z,29.8
2018-02-01T17:46:05.384Z,29.8
2018-02-01T17:48:05.214Z,30
2018-02-01T17:50:05.972Z,29.8
2018-02-01T17:52:05.736Z,29.7
2018-02-01T17:54:05.519Z,29.8
2018-02-01T17:56:05.240Z,29.8
2018-02-01T17:58:08.115Z,29.7
2018-02-01T18:00:05.948Z,29.7
2018-02-01T18:02:05.706Z,29.9
2018-02-01T18:04:05.831Z,29.7
2018-02-01T18:06:05.902Z,29.9
2018-02-01T18:08:05.190Z,29.7
2018-02-01T18:10:06.488Z,29.9
2018-02-01T18:12:05.294Z,29.9
2018-02-01T18:14:05.028Z,29.7
2018-02-01T18:16:07.868Z,29.9
2018-02-01T18:18:08.336Z,29.9
2018-02-01T18:20:05.030Z,29.9
2018-02-01T18:22:08.381Z,29.9
2018-02-01T18:24:05.184Z,29.9
2018-02-01T18:26:07.979Z,29.9
2018-02-01T18:28:05.759Z,29.9
2018-02-01T18:30:08.051Z,29.9
2018-02-01T18:32:15.918Z,29.9
2018-02-01T18:34:10.802Z,29.9
2018-02-01T18:36:10.679Z,29.9
2018-02-01T18:38:05.771Z,29.9
2018-02-01T18:40:05.596Z,29.9
2018-02-01T18:42:05.784Z,29.9
2018-02-01T18:44:05.761Z,30
2018-02-01T18:46:11.725Z,29.8
2018-02-01T18:48:05.788Z,29.8
2018-02-01T18:50:05.089Z,29.8
2018-02-01T18:52:05.125Z,29.8
2018-02-01T18:54:05.871Z,29.8
2018-02-01T18:56:05.164Z,29.8
2018-02-01T18:58:05.948Z,29.9
2018-02-01T19:00:05.302Z,29.9
2018-02-01T19:02:08.293Z,29.8
2018-02-01T19:04:06.457Z,29.8
2018-02-01T19:06:05.453Z,29.9
2018-02-01T19:08:06.442Z,29.9
2018-02-01T19:10:05.262Z,29.9
2018-02-01T19:12:05.571Z,29.9
2018-02-01T19:14:05.378Z,29.9
2018-02-01T19:16:05.468Z,29.9
2018-02-01T19:18:06.718Z,29.8
2018-02-01T19:20:05.482Z,29.9
2018-02-01T19:22:10.852Z,29.9
2018-02-01T19:24:05.603Z,30
2018-02-01T19:26:05.460Z,29.8
2018-02-01T19:28:07.783Z,29.8
2018-02-01T19:30:05.672Z,30
2018-02-01T19:32:05.479Z,29.8
2018-02-01T19:34:22.976Z,29.9
2018-02-01T19:36:14.327Z,29.9
2018-02-01T19:38:06.083Z,29.8
2018-02-01T19:40:06.257Z,29.9
2018-02-01T19:42:07.465Z,29.9
2018-02-01T19:44:05.227Z,29.9
2018-02-01T19:46:22.121Z,29.9
2018-02-01T19:48:05.075Z,29.8
2018-02-01T19:50:05.828Z,29.9
2018-02-01T19:52:05.598Z,29.9
2018-02-01T19:54:06.005Z,29.9
2018-02-01T19:56:11.110Z,29.9
2018-02-01T19:58:05.923Z,29.9
2018-02-01T20:00:08.324Z,29.9
2018-02-01T20:02:08.229Z,29.8
2018-02-01T20:04:05.055Z,29.8
2018-02-01T20:06:05.277Z,30
2018-02-01T20:08:07.038Z,29.8
2018-02-01T20:10:05.792Z,29.9
2018-02-01T20:12:05.037Z,29.9
2018-02-01T20:14:16.083Z,29.8
2018-02-01T20:16:05.849Z,29.8
2018-02-01T20:18:08.331Z,29.8
2018-02-01T20:20:06.067Z,29.8
2018-02-01T20:22:10.821Z,30
2018-02-01T20:24:05.600Z,29.8
2018-02-01T20:26:05.418Z,29.8
2018-02-01T20:28:06.052Z,29.8
2018-02-01T20:30:05.850Z,29.8
2018-02-01T20:32:05.635Z,29.8
2018-02-01T20:34:05.918Z,29.9
2018-02-01T20:36:05.913Z,29.8
2018-02-01T20:38:05.910Z,29.9
2018-02-01T20:40:05.365Z,29.9
2018-02-01T20:42:05.165Z,29.9
2018-02-01T20:44:08.512Z,29.8
2018-02-01T20:46:06.097Z,29.8
2018-02-01T20:48:08.408Z,29.8
2018-02-01T20:50:05.929Z,29.8
2018-02-01T20:52:05.632Z,29.8
2018-02-01T20:54:06.854Z,29.8
2018-02-01T20:56:05.303Z,29.8
2018-02-01T20:58:05.129Z,29.8
2018-02-01T21:00:05.927Z,29.8
2018-02-01T21:02:05.694Z,29.8
2018-02-01T21:04:10.837Z,29.8
2018-02-01T21:06:05.634Z,29.8
2018-02-01T21:08:05.399Z,29.8
2018-02-01T21:10:05.389Z,29.8
2018-02-01T21:12:05.706Z,29.8
2018-02-01T21:14:05.570Z,29.9
2018-02-01T21:16:05.633Z,29.9
2018-02-01T21:18:05.872Z,29.9
2018-02-01T21:20:05.614Z,29.8
2018-02-01T21:22:05.637Z,29.9
2018-02-01T21:24:05.995Z,29.9
2018-02-01T21:26:05.250Z,29.9
2018-02-01T21:28:07.873Z,29.9
2018-02-01T21:30:10.775Z,29.8
2018-02-01T21:32:05.537Z,29.8
2018-02-01T21:34:05.342Z,29.8
2018-02-01T21:36:05.664Z,29.9
2018-02-01T21:38:05.420Z,29.8
2018-02-01T21:40:05.641Z,29.8
2018-02-01T21:42:05.987Z,29.8
2018-02-01T21:44:05.965Z,29.8
2018-02-01T21:46:11.048Z,29.7
2018-02-01T21:48:05.524Z,29.8
2018-02-01T21:50:05.487Z,29.9
2018-02-01T21:52:05.250Z,29.7
2018-02-01T21:54:06.047Z,29.9
2018-02-01T21:56:05.826Z,29.9
2018-02-01T21:58:05.640Z,29.8
2018-02-01T22:00:07.975Z,29.9
2018-02-01T22:02:05.806Z,29.7
2018-02-01T22:04:05.399Z,29.9
2018-02-01T22:06:05.548Z,29.7
2018-02-01T22:08:05.519Z,29.8
2018-02-01T22:10:05.311Z,29.9
2018-02-01T22:12:07.581Z,29.7
2018-02-01T22:14:05.288Z,29.7
2018-02-01T22:16:06.113Z,29.8
2018-02-01T22:18:05.058Z,29.8
2018-02-01T22:20:05.914Z,29.8
2018-02-01T22:22:05.544Z,29.8
2018-02-01T22:24:05.331Z,29.6
2018-02-01T22:26:05.049Z,29.9
2018-02-01T22:28:08.338Z,29.7
2018-02-01T22:30:05.092Z,29.7
2018-02-01T22:32:05.893Z,29.8
2018-02-01T22:34:10.725Z,29.8
2018-02-01T22:36:08.002Z,29.8
2018-02-01T22:38:08.141Z,29.6
2018-02-01T22:40:05.462Z,29.8
2018-02-01T22:42:05.176Z,29.8
2018-02-01T22:44:05.932Z,29.8
2018-02-01T22:46:10.714Z,29.8
2018-02-01T22:48:05.533Z,29.8
2018-02-01T22:50:10.359Z,29.8
2018-02-01T22:52:07.706Z,29.8
2018-02-01T22:54:05.474Z,29.8
2018-02-01T22:56:07.829Z,29.8
2018-02-01T22:58:05.658Z,29.8
2018-02-01T23:00:05.484Z,29.8
2018-02-01T23:02:05.257Z,29.8
2018-02-01T23:04:11.066Z,29.8
2018-02-01T23:06:05.798Z,29.8
2018-02-01T23:08:05.509Z,29.6
2018-02-01T23:10:05.517Z,29.8
2018-02-01T23:12:07.947Z,29.7
2018-02-01T23:14:05.331Z,29.7
2018-02-01T23:16:10.510Z,29.8
2018-02-01T23:18:05.164Z,29.8
2018-02-01T23:20:06.110Z,29.8
2018-02-01T23:22:05.576Z,29.7
2018-02-01T23:24:06.128Z,29.7
2018-02-01T23:26:08.803Z,29.7
2018-02-01T23:28:05.468Z,29.7
2018-02-01T23:30:10.434Z,29.7
2018-02-01T23:32:05.190Z,29.7
2018-02-01T23:34:06.235Z,29.7
2018-02-01T23:36:08.517Z,29.7
2018-02-01T23:38:10.299Z,29.7
2018-02-01T23:40:08.059Z,29.7
2018-02-01T23:42:05.279Z,29.7
2018-02-01T23:44:05.949Z,29.7
2018-02-01T23:46:05.635Z,29.7
2018-02-01T23:48:05.334Z,29.7
2018-02-01T23:50:05.028Z,29.7
2018-02-01T23:52:05.258Z,29.7
2018-02-01T23:54:05.944Z,29.9
2018-02-01T23:56:05.617Z,29.7
2018-02-01T23:58:05.558Z,29.7
